sensor_id;sensor_type;location;lat;lon;timestamp;pressure;altitude;pressure_sealevel;temperature;humidity
55990;BME280;41875;55.806;38.082;2022-10-04T00:01:24;98238.47;;;12.32;64.90
55990;BME280;41875;55.806;38.082;2022-10-04T00:04:02;98240.69;;;12.42;64.97
55990;BME280;41875;55.806;38.082;2022-10-04T00:06:36;98237.03;;;12.43;64.89
55990;BME280;41875;55.806;38.082;2022-10-04T00:09:07;98225.34;;;12.17;65.53
55990;BME280;41875;55.806;38.082;2022-10-04T00:11:42;98231.88;;;12.08;65.66
55990;BME280;41875;55.806;38.082;2022-10-04T00:14:15;98231.19;;;11.92;65.59
55990;BME280;41875;55.806;38.082;2022-10-04T00:16:47;98260.72;;;12.31;65.39
55990;BME280;41875;55.806;38.082;2022-10-04T00:19:41;98246.06;;;11.86;66.57
55990;BME280;41875;55.806;38.082;2022-10-04T00:22:15;98236.22;;;12.42;64.43
55990;BME280;41875;55.806;38.082;2022-10-04T00:25:17;98252.41;;;12.68;64.34
55990;BME280;41875;55.806;38.082;2022-10-04T00:28:14;98260.94;;;11.81;66.31
55990;BME280;41875;55.806;38.082;2022-10-04T00:30:44;98271.97;;;12.40;64.89
55990;BME280;41875;55.806;38.082;2022-10-04T00:33:34;98246.22;;;12.33;64.75
55990;BME280;41875;55.806;38.082;2022-10-04T00:36:31;98270.50;;;12.24;65.31
55990;BME280;41875;55.806;38.082;2022-10-04T00:42:49;98273.19;;;12.44;64.78
55990;BME280;41875;55.806;38.082;2022-10-04T00:45:31;98274.03;;;12.58;64.62
55990;BME280;41875;55.806;38.082;2022-10-04T00:51:01;98270.97;;;11.85;65.84
55990;BME280;41875;55.806;38.082;2022-10-04T00:53:51;98276.28;;;12.47;64.54
55990;BME280;41875;55.806;38.082;2022-10-04T00:56:25;98288.13;;;12.52;64.05
55990;BME280;41875;55.806;38.082;2022-10-04T00:59:23;98294.38;;;12.17;66.26
55990;BME280;41875;55.806;38.082;2022-10-04T01:01:55;98300.63;;;12.71;64.65
55990;BME280;41875;55.806;38.082;2022-10-04T01:04:37;98290.34;;;12.28;65.14
55990;BME280;41875;55.806;38.082;2022-10-04T01:07:08;98283.00;;;12.43;64.22
55990;BME280;41875;55.806;38.082;2022-10-04T01:09:44;98279.44;;;12.09;65.12
55990;BME280;41875;55.806;38.082;2022-10-04T01:12:24;98306.19;;;12.08;65.67
55990;BME280;41875;55.806;38.082;2022-10-04T01:15:02;98305.63;;;12.26;65.23
55990;BME280;41875;55.806;38.082;2022-10-04T01:17:32;98282.03;;;12.71;63.22
55990;BME280;41875;55.806;38.082;2022-10-04T01:20:01;98260.84;;;12.02;65.14
55990;BME280;41875;55.806;38.082;2022-10-04T01:22:36;98280.97;;;12.45;64.30
55990;BME280;41875;55.806;38.082;2022-10-04T01:25:07;98296.69;;;12.47;64.26
55990;BME280;41875;55.806;38.082;2022-10-04T01:27:40;98281.72;;;12.12;64.86
55990;BME280;41875;55.806;38.082;2022-10-04T01:30:12;98293.75;;;12.15;65.17
55990;BME280;41875;55.806;38.082;2022-10-04T01:32:41;98292.72;;;12.09;65.42
55990;BME280;41875;55.806;38.082;2022-10-04T01:35:13;98296.75;;;11.98;65.96
55990;BME280;41875;55.806;38.082;2022-10-04T01:37:44;98282.34;;;11.79;66.49
55990;BME280;41875;55.806;38.082;2022-10-04T01:40:13;98299.22;;;12.00;66.12
55990;BME280;41875;55.806;38.082;2022-10-04T01:42:45;98298.75;;;11.96;66.07
55990;BME280;41875;55.806;38.082;2022-10-04T01:45:23;98293.38;;;12.25;65.26
55990;BME280;41875;55.806;38.082;2022-10-04T01:47:58;98293.50;;;12.03;65.51
55990;BME280;41875;55.806;38.082;2022-10-04T01:50:30;98303.59;;;11.79;66.58
55990;BME280;41875;55.806;38.082;2022-10-04T01:53:11;98315.97;;;12.00;66.04
55990;BME280;41875;55.806;38.082;2022-10-04T01:55:43;98308.28;;;11.77;66.63
55990;BME280;41875;55.806;38.082;2022-10-04T01:58:16;98306.88;;;11.81;66.57
55990;BME280;41875;55.806;38.082;2022-10-04T02:00:51;98330.41;;;11.98;66.13
55990;BME280;41875;55.806;38.082;2022-10-04T02:03:25;98312.00;;;11.89;66.16
55990;BME280;41875;55.806;38.082;2022-10-04T02:05:59;98313.84;;;11.89;66.14
55990;BME280;41875;55.806;38.082;2022-10-04T02:08:32;98314.31;;;11.99;65.65
55990;BME280;41875;55.806;38.082;2022-10-04T02:11:03;98315.06;;;11.86;66.11
55990;BME280;41875;55.806;38.082;2022-10-04T02:13:37;98321.59;;;11.90;66.13
55990;BME280;41875;55.806;38.082;2022-10-04T02:16:09;98320.78;;;11.90;66.05
55990;BME280;41875;55.806;38.082;2022-10-04T02:18:39;98319.88;;;11.76;66.46
55990;BME280;41875;55.806;38.082;2022-10-04T02:21:11;98320.78;;;11.90;65.91
55990;BME280;41875;55.806;38.082;2022-10-04T02:23:43;98319.00;;;11.62;66.83
55990;BME280;41875;55.806;38.082;2022-10-04T02:26:12;98327.66;;;11.78;66.44
55990;BME280;41875;55.806;38.082;2022-10-04T02:28:41;98315.75;;;11.60;67.02
55990;BME280;41875;55.806;38.082;2022-10-04T02:31:10;98314.19;;;11.79;66.36
55990;BME280;41875;55.806;38.082;2022-10-04T02:33:57;98327.00;;;11.69;66.64
55990;BME280;41875;55.806;38.082;2022-10-04T02:36:27;98337.63;;;11.69;66.61
55990;BME280;41875;55.806;38.082;2022-10-04T02:39:00;98320.25;;;11.66;66.89
55990;BME280;41875;55.806;38.082;2022-10-04T02:41:32;98325.00;;;11.71;66.45
55990;BME280;41875;55.806;38.082;2022-10-04T02:44:08;98324.78;;;11.72;66.49
55990;BME280;41875;55.806;38.082;2022-10-04T02:46:45;98331.22;;;11.56;67.00
55990;BME280;41875;55.806;38.082;2022-10-04T02:49:22;98337.28;;;11.79;66.41
55990;BME280;41875;55.806;38.082;2022-10-04T02:52:01;98316.03;;;11.43;67.25
55990;BME280;41875;55.806;38.082;2022-10-04T02:54:36;98326.56;;;11.65;66.63
55990;BME280;41875;55.806;38.082;2022-10-04T02:57:12;98342.72;;;11.42;67.96
55990;BME280;41875;55.806;38.082;2022-10-04T02:59:42;98343.38;;;11.79;66.49
55990;BME280;41875;55.806;38.082;2022-10-04T03:02:22;98349.66;;;11.71;67.17
55990;BME280;41875;55.806;38.082;2022-10-04T03:05:02;98340.25;;;11.62;67.33
55990;BME280;41875;55.806;38.082;2022-10-04T03:07:33;98341.09;;;11.69;66.75
55990;BME280;41875;55.806;38.082;2022-10-04T03:10:07;98342.31;;;11.38;67.93
55990;BME280;41875;55.806;38.082;2022-10-04T03:12:38;98354.00;;;11.51;67.89
55990;BME280;41875;55.806;38.082;2022-10-04T03:15:09;98364.28;;;11.61;67.39
55990;BME280;41875;55.806;38.082;2022-10-04T03:17:39;98362.00;;;11.57;67.53
55990;BME280;41875;55.806;38.082;2022-10-04T03:20:09;98355.81;;;11.43;68.18
55990;BME280;41875;55.806;38.082;2022-10-04T03:22:44;98353.97;;;11.44;68.10
55990;BME280;41875;55.806;38.082;2022-10-04T03:25:17;98352.50;;;11.63;67.57
55990;BME280;41875;55.806;38.082;2022-10-04T03:27:48;98352.53;;;11.41;68.23
55990;BME280;41875;55.806;38.082;2022-10-04T03:30:18;98356.09;;;11.55;67.74
55990;BME280;41875;55.806;38.082;2022-10-04T03:32:48;98343.78;;;11.41;68.34
55990;BME280;41875;55.806;38.082;2022-10-04T03:35:25;98354.34;;;11.34;68.66
55990;BME280;41875;55.806;38.082;2022-10-04T03:37:56;98355.47;;;11.53;67.86
55990;BME280;41875;55.806;38.082;2022-10-04T03:40:29;98356.91;;;11.56;67.59
55990;BME280;41875;55.806;38.082;2022-10-04T03:43:00;98357.75;;;11.56;67.88
55990;BME280;41875;55.806;38.082;2022-10-04T03:45:32;98348.69;;;11.79;66.74
55990;BME280;41875;55.806;38.082;2022-10-04T03:48:04;98357.94;;;11.90;66.54
55990;BME280;41875;55.806;38.082;2022-10-04T03:50:36;98365.03;;;11.83;67.28
55990;BME280;41875;55.806;38.082;2022-10-04T03:53:13;98363.56;;;11.73;67.36
55990;BME280;41875;55.806;38.082;2022-10-04T03:55:45;98352.34;;;11.78;66.84
55990;BME280;41875;55.806;38.082;2022-10-04T03:58:15;98354.66;;;11.88;66.68
55990;BME280;41875;55.806;38.082;2022-10-04T04:00:58;98357.53;;;11.86;67.18
55990;BME280;41875;55.806;38.082;2022-10-04T04:03:32;98368.13;;;12.22;65.58
55990;BME280;41875;55.806;38.082;2022-10-04T04:06:09;98369.09;;;12.14;65.72
55990;BME280;41875;55.806;38.082;2022-10-04T04:08:42;98368.28;;;12.13;65.64
55990;BME280;41875;55.806;38.082;2022-10-04T04:11:18;98362.19;;;12.19;65.62
55990;BME280;41875;55.806;38.082;2022-10-04T04:13:54;98368.94;;;12.22;65.54
55990;BME280;41875;55.806;38.082;2022-10-04T04:16:26;98373.66;;;12.27;65.53
55990;BME280;41875;55.806;38.082;2022-10-04T04:19:00;98380.63;;;12.34;65.47
55990;BME280;41875;55.806;38.082;2022-10-04T04:21:30;98385.38;;;12.46;64.62
55990;BME280;41875;55.806;38.082;2022-10-04T04:24:02;98384.06;;;12.28;65.32
55990;BME280;41875;55.806;38.082;2022-10-04T04:26:38;98394.56;;;12.43;64.77
55990;BME280;41875;55.806;38.082;2022-10-04T04:29:15;98384.56;;;12.45;64.69
55990;BME280;41875;55.806;38.082;2022-10-04T04:31:50;98378.13;;;12.26;65.37
55990;BME280;41875;55.806;38.082;2022-10-04T04:34:21;98388.25;;;12.51;64.90
55990;BME280;41875;55.806;38.082;2022-10-04T04:36:57;98397.34;;;12.28;65.38
55990;BME280;41875;55.806;38.082;2022-10-04T04:39:27;98385.72;;;11.94;66.20
55990;BME280;41875;55.806;38.082;2022-10-04T04:42:15;98396.00;;;12.46;65.48
55990;BME280;41875;55.806;38.082;2022-10-04T04:44:46;98391.91;;;12.43;64.97
55990;BME280;41875;55.806;38.082;2022-10-04T04:47:27;98403.34;;;12.50;64.93
55990;BME280;41875;55.806;38.082;2022-10-04T04:50:03;98398.03;;;12.44;65.18
55990;BME280;41875;55.806;38.082;2022-10-04T04:52:33;98401.50;;;12.44;64.79
55990;BME280;41875;55.806;38.082;2022-10-04T04:55:04;98394.63;;;12.15;65.90
55990;BME280;41875;55.806;38.082;2022-10-04T04:57:38;98388.84;;;12.40;65.00
55990;BME280;41875;55.806;38.082;2022-10-04T05:00:13;98408.34;;;12.25;65.31
55990;BME280;41875;55.806;38.082;2022-10-04T05:02:50;98397.97;;;12.30;65.43
55990;BME280;41875;55.806;38.082;2022-10-04T05:05:26;98406.19;;;12.35;64.88
55990;BME280;41875;55.806;38.082;2022-10-04T05:08:10;98403.78;;;12.47;64.85
55990;BME280;41875;55.806;38.082;2022-10-04T05:10:40;98417.94;;;12.75;63.64
55990;BME280;41875;55.806;38.082;2022-10-04T05:13:12;98408.91;;;12.56;64.24
55990;BME280;41875;55.806;38.082;2022-10-04T05:15:42;98406.72;;;12.17;65.24
55990;BME280;41875;55.806;38.082;2022-10-04T05:18:25;98415.69;;;12.78;63.62
55990;BME280;41875;55.806;38.082;2022-10-04T05:20:58;98398.41;;;13.23;61.64
55990;BME280;41875;55.806;38.082;2022-10-04T05:23:31;98397.59;;;13.22;61.21
55990;BME280;41875;55.806;38.082;2022-10-04T05:26:00;98399.63;;;13.27;61.14
55990;BME280;41875;55.806;38.082;2022-10-04T05:28:32;98403.91;;;13.21;61.24
55990;BME280;41875;55.806;38.082;2022-10-04T05:31:29;98395.75;;;13.36;61.08
55990;BME280;41875;55.806;38.082;2022-10-04T05:34:00;98409.69;;;13.59;60.26
55990;BME280;41875;55.806;38.082;2022-10-04T05:36:49;98417.69;;;13.52;61.37
55990;BME280;41875;55.806;38.082;2022-10-04T05:39:25;98389.16;;;13.86;59.89
55990;BME280;41875;55.806;38.082;2022-10-04T05:42:03;98404.53;;;13.70;59.95
55990;BME280;41875;55.806;38.082;2022-10-04T05:44:35;98402.50;;;13.19;61.79
55990;BME280;41875;55.806;38.082;2022-10-04T05:47:13;98416.59;;;13.19;61.67
55990;BME280;41875;55.806;38.082;2022-10-04T05:49:43;98436.69;;;13.29;61.20
55990;BME280;41875;55.806;38.082;2022-10-04T05:52:25;98419.28;;;13.80;59.94
55990;BME280;41875;55.806;38.082;2022-10-04T05:55:22;98433.44;;;13.47;61.94
55990;BME280;41875;55.806;38.082;2022-10-04T06:01:09;98420.13;;;13.67;60.60
55990;BME280;41875;55.806;38.082;2022-10-04T06:04:03;98430.13;;;13.38;60.79
55990;BME280;41875;55.806;38.082;2022-10-04T06:06:39;98413.38;;;13.44;60.09
55990;BME280;41875;55.806;38.082;2022-10-04T06:09:13;98416.19;;;13.96;58.62
55990;BME280;41875;55.806;38.082;2022-10-04T06:11:53;98411.53;;;14.37;57.67
55990;BME280;41875;55.806;38.082;2022-10-04T06:14:53;98419.91;;;13.62;59.95
55990;BME280;41875;55.806;38.082;2022-10-04T06:17:46;98417.22;;;14.02;59.40
55990;BME280;41875;55.806;38.082;2022-10-04T06:20:33;98427.56;;;14.24;58.24
55990;BME280;41875;55.806;38.082;2022-10-04T06:23:12;98415.16;;;14.63;56.75
55990;BME280;41875;55.806;38.082;2022-10-04T06:25:45;98418.66;;;14.57;56.38
55990;BME280;41875;55.806;38.082;2022-10-04T06:28:18;98430.41;;;14.36;57.42
55990;BME280;41875;55.806;38.082;2022-10-04T06:31:08;98424.09;;;14.30;57.65
55990;BME280;41875;55.806;38.082;2022-10-04T06:33:55;98427.38;;;14.84;56.28
55990;BME280;41875;55.806;38.082;2022-10-04T06:36:44;98436.28;;;15.35;54.81
55990;BME280;41875;55.806;38.082;2022-10-04T06:39:30;98430.59;;;14.93;55.92
55990;BME280;41875;55.806;38.082;2022-10-04T06:42:26;98407.41;;;14.48;56.61
55990;BME280;41875;55.806;38.082;2022-10-04T06:45:26;98417.59;;;14.06;57.64
55990;BME280;41875;55.806;38.082;2022-10-04T06:48:26;98429.56;;;14.48;56.55
55990;BME280;41875;55.806;38.082;2022-10-04T06:51:08;98430.41;;;14.36;56.49
55990;BME280;41875;55.806;38.082;2022-10-04T06:53:53;98442.75;;;15.21;54.57
55990;BME280;41875;55.806;38.082;2022-10-04T06:56:49;98436.66;;;15.39;54.14
55990;BME280;41875;55.806;38.082;2022-10-04T06:59:34;98443.19;;;15.43;54.00
55990;BME280;41875;55.806;38.082;2022-10-04T07:02:12;98423.22;;;15.20;54.09
55990;BME280;41875;55.806;38.082;2022-10-04T07:04:48;98418.81;;;15.07;53.20
55990;BME280;41875;55.806;38.082;2022-10-04T07:07:37;98441.91;;;14.88;53.97
55990;BME280;41875;55.806;38.082;2022-10-04T07:10:22;98441.53;;;15.17;53.94
55990;BME280;41875;55.806;38.082;2022-10-04T07:13:05;98435.63;;;15.40;52.82
55990;BME280;41875;55.806;38.082;2022-10-04T07:15:44;98440.25;;;15.26;53.05
55990;BME280;41875;55.806;38.082;2022-10-04T07:18:19;98431.59;;;15.31;53.02
55990;BME280;41875;55.806;38.082;2022-10-04T07:20:57;98430.16;;;15.28;52.52
55990;BME280;41875;55.806;38.082;2022-10-04T07:23:33;98435.19;;;15.43;51.80
55990;BME280;41875;55.806;38.082;2022-10-04T07:26:06;98438.84;;;15.74;51.23
55990;BME280;41875;55.806;38.082;2022-10-04T07:28:43;98431.25;;;16.52;49.74
55990;BME280;41875;55.806;38.082;2022-10-04T07:31:31;98437.50;;;15.83;50.28
55990;BME280;41875;55.806;38.082;2022-10-04T07:34:07;98428.81;;;16.32;49.24
55990;BME280;41875;55.806;38.082;2022-10-04T07:36:43;98421.78;;;15.75;50.99
55990;BME280;41875;55.806;38.082;2022-10-04T07:39:16;98422.16;;;16.04;49.59
55990;BME280;41875;55.806;38.082;2022-10-04T07:41:51;98432.69;;;16.55;49.26
55990;BME280;41875;55.806;38.082;2022-10-04T07:44:29;98435.31;;;16.73;48.33
55990;BME280;41875;55.806;38.082;2022-10-04T07:47:04;98448.03;;;15.85;50.42
55990;BME280;41875;55.806;38.082;2022-10-04T07:49:37;98440.63;;;16.06;50.08
55990;BME280;41875;55.806;38.082;2022-10-04T07:52:21;98438.53;;;15.82;50.43
55990;BME280;41875;55.806;38.082;2022-10-04T07:54:59;98450.41;;;16.49;49.33
55990;BME280;41875;55.806;38.082;2022-10-04T07:57:37;98449.00;;;16.65;48.86
55990;BME280;41875;55.806;38.082;2022-10-04T08:00:15;98447.25;;;17.20;47.65
55990;BME280;41875;55.806;38.082;2022-10-04T08:02:57;98438.75;;;16.62;48.67
55990;BME280;41875;55.806;38.082;2022-10-04T08:05:36;98432.56;;;17.65;47.01
55990;BME280;41875;55.806;38.082;2022-10-04T08:08:21;98437.34;;;17.09;48.52
55990;BME280;41875;55.806;38.082;2022-10-04T08:11:02;98426.09;;;17.18;47.75
55990;BME280;41875;55.806;38.082;2022-10-04T08:13:40;98421.47;;;16.95;48.17
55990;BME280;41875;55.806;38.082;2022-10-04T08:16:21;98429.72;;;17.48;46.72
55990;BME280;41875;55.806;38.082;2022-10-04T08:19:05;98429.47;;;17.26;47.22
55990;BME280;41875;55.806;38.082;2022-10-04T08:21:44;98434.16;;;16.69;48.26
55990;BME280;41875;55.806;38.082;2022-10-04T08:24:19;98411.38;;;16.79;47.70
55990;BME280;41875;55.806;38.082;2022-10-04T08:27:08;98421.81;;;16.68;47.74
55990;BME280;41875;55.806;38.082;2022-10-04T08:30:01;98442.69;;;17.09;47.90
55990;BME280;41875;55.806;38.082;2022-10-04T08:32:41;98433.28;;;16.20;49.27
55990;BME280;41875;55.806;38.082;2022-10-04T08:35:30;98442.13;;;16.88;47.80
55990;BME280;41875;55.806;38.082;2022-10-04T08:38:14;98432.25;;;17.19;47.27
55990;BME280;41875;55.806;38.082;2022-10-04T08:44:12;98433.03;;;17.08;47.07
55990;BME280;41875;55.806;38.082;2022-10-04T08:53:02;98448.09;;;16.71;47.40
55990;BME280;41875;55.806;38.082;2022-10-04T08:56:12;98448.03;;;16.78;47.47
55990;BME280;41875;55.806;38.082;2022-10-04T08:59:10;98452.84;;;17.18;46.20
55990;BME280;41875;55.806;38.082;2022-10-04T09:02:34;98458.88;;;17.80;45.42
55990;BME280;41875;55.806;38.082;2022-10-04T09:05:24;98435.22;;;16.50;48.06
55990;BME280;41875;55.806;38.082;2022-10-04T09:08:35;98458.63;;;16.85;47.84
55990;BME280;41875;55.806;38.082;2022-10-04T09:11:20;98452.16;;;16.92;47.54
55990;BME280;41875;55.806;38.082;2022-10-04T09:14:11;98442.78;;;16.15;49.13
55990;BME280;41875;55.806;38.082;2022-10-04T09:16:47;98453.53;;;16.09;48.79
55990;BME280;41875;55.806;38.082;2022-10-04T09:19:20;98444.09;;;15.88;49.32
55990;BME280;41875;55.806;38.082;2022-10-04T09:22:08;98452.47;;;15.91;49.56
55990;BME280;41875;55.806;38.082;2022-10-04T09:24:57;98455.00;;;15.86;49.86
55990;BME280;41875;55.806;38.082;2022-10-04T09:27:49;98462.00;;;16.24;49.29
55990;BME280;41875;55.806;38.082;2022-10-04T09:30:35;98458.81;;;16.15;49.24
55990;BME280;41875;55.806;38.082;2022-10-04T09:36:35;98454.28;;;16.72;48.08
55990;BME280;41875;55.806;38.082;2022-10-04T09:42:30;98449.03;;;17.26;46.86
55990;BME280;41875;55.806;38.082;2022-10-04T09:48:34;98446.06;;;17.04;47.55
55990;BME280;41875;55.806;38.082;2022-10-04T09:51:16;98450.31;;;17.24;46.59
55990;BME280;41875;55.806;38.082;2022-10-04T09:54:06;98438.59;;;17.48;46.23
55990;BME280;41875;55.806;38.082;2022-10-04T10:00:06;98415.91;;;17.51;46.24
55990;BME280;41875;55.806;38.082;2022-10-04T10:03:01;98431.28;;;17.01;46.78
55990;BME280;41875;55.806;38.082;2022-10-04T10:05:57;98445.81;;;16.38;48.10
55990;BME280;41875;55.806;38.082;2022-10-04T10:08:35;98440.53;;;16.68;47.29
55990;BME280;41875;55.806;38.082;2022-10-04T10:11:15;98391.16;;;16.52;47.15
55990;BME280;41875;55.806;38.082;2022-10-04T10:17:24;98411.91;;;16.38;47.54
55990;BME280;41875;55.806;38.082;2022-10-04T10:26:32;98418.59;;;16.29;48.19
55990;BME280;41875;55.806;38.082;2022-10-04T10:29:27;98410.72;;;16.34;48.20
55990;BME280;41875;55.806;38.082;2022-10-04T10:32:12;98415.53;;;15.88;48.81
55990;BME280;41875;55.806;38.082;2022-10-04T10:35:15;98438.78;;;16.25;48.66
55990;BME280;41875;55.806;38.082;2022-10-04T10:38:09;98438.41;;;16.58;47.71
55990;BME280;41875;55.806;38.082;2022-10-04T10:40:51;98420.28;;;16.42;48.08
55990;BME280;41875;55.806;38.082;2022-10-04T10:43:42;98430.16;;;16.41;48.46
55990;BME280;41875;55.806;38.082;2022-10-04T10:46:31;98424.31;;;17.12;46.59
55990;BME280;41875;55.806;38.082;2022-10-04T10:55:26;98405.09;;;17.03;47.43
55990;BME280;41875;55.806;38.082;2022-10-04T10:58:28;98413.78;;;17.29;46.84
55990;BME280;41875;55.806;38.082;2022-10-04T11:04:21;98417.75;;;17.62;45.87
55990;BME280;41875;55.806;38.082;2022-10-04T11:07:02;98392.72;;;16.90;47.18
55990;BME280;41875;55.806;38.082;2022-10-04T11:09:57;98392.56;;;16.85;47.29
55990;BME280;41875;55.806;38.082;2022-10-04T11:12:49;98396.94;;;16.49;47.29
55990;BME280;41875;55.806;38.082;2022-10-04T11:15:49;98404.16;;;16.49;47.56
55990;BME280;41875;55.806;38.082;2022-10-04T11:18:56;98436.69;;;16.08;48.62
55990;BME280;41875;55.806;38.082;2022-10-04T11:21:51;98468.75;;;16.64;46.78
55990;BME280;41875;55.806;38.082;2022-10-04T11:24:52;98535.72;;;15.81;51.21
55990;BME280;41875;55.806;38.082;2022-10-04T11:27:39;98530.69;;;13.96;62.79
55990;BME280;41875;55.806;38.082;2022-10-04T11:30:19;98553.81;;;13.07;68.24
55990;BME280;41875;55.806;38.082;2022-10-04T11:36:28;98578.00;;;12.77;71.01
55990;BME280;41875;55.806;38.082;2022-10-04T11:39:06;98576.50;;;12.32;69.24
55990;BME280;41875;55.806;38.082;2022-10-04T11:41:47;98581.81;;;12.04;71.01
55990;BME280;41875;55.806;38.082;2022-10-04T11:44:46;98582.75;;;12.18;70.53
55990;BME280;41875;55.806;38.082;2022-10-04T11:47:39;98597.97;;;11.87;70.64
55990;BME280;41875;55.806;38.082;2022-10-04T11:50:29;98608.25;;;11.97;70.10
55990;BME280;41875;55.806;38.082;2022-10-04T11:56:30;98622.06;;;11.49;71.37
55990;BME280;41875;55.806;38.082;2022-10-04T11:59:13;98617.91;;;11.40;71.65
55990;BME280;41875;55.806;38.082;2022-10-04T12:08:23;98623.78;;;12.15;68.45
55990;BME280;41875;55.806;38.082;2022-10-04T12:11:22;98610.84;;;11.90;69.02
55990;BME280;41875;55.806;38.082;2022-10-04T12:14:07;98615.53;;;11.88;68.60
55990;BME280;41875;55.806;38.082;2022-10-04T12:16:54;98614.66;;;11.81;68.36
55990;BME280;41875;55.806;38.082;2022-10-04T12:19:49;98611.06;;;12.11;67.93
55990;BME280;41875;55.806;38.082;2022-10-04T12:22:32;98619.41;;;12.58;66.46
55990;BME280;41875;55.806;38.082;2022-10-04T12:25:35;98634.31;;;12.30;66.52
55990;BME280;41875;55.806;38.082;2022-10-04T12:28:20;98627.03;;;12.68;65.48
55990;BME280;41875;55.806;38.082;2022-10-04T12:31:08;98628.28;;;13.14;63.82
55990;BME280;41875;55.806;38.082;2022-10-04T12:33:43;98626.53;;;13.34;63.87
55990;BME280;41875;55.806;38.082;2022-10-04T12:36:35;98621.38;;;12.49;65.12
55990;BME280;41875;55.806;38.082;2022-10-04T12:39:16;98640.50;;;13.01;63.83
55990;BME280;41875;55.806;38.082;2022-10-04T12:41:56;98639.63;;;12.94;64.54
55990;BME280;41875;55.806;38.082;2022-10-04T12:44:38;98649.19;;;12.81;64.62
55990;BME280;41875;55.806;38.082;2022-10-04T12:47:43;98641.19;;;12.46;65.50
55990;BME280;41875;55.806;38.082;2022-10-04T12:50:23;98647.59;;;12.94;64.42
55990;BME280;41875;55.806;38.082;2022-10-04T12:52:53;98657.81;;;12.90;65.47
55990;BME280;41875;55.806;38.082;2022-10-04T12:55:42;98657.69;;;12.99;65.16
55990;BME280;41875;55.806;38.082;2022-10-04T12:58:21;98655.50;;;12.80;65.17
55990;BME280;41875;55.806;38.082;2022-10-04T13:00:53;98666.81;;;13.24;62.63
55990;BME280;41875;55.806;38.082;2022-10-04T13:03:37;98668.88;;;13.71;61.54
55990;BME280;41875;55.806;38.082;2022-10-04T13:06:13;98670.25;;;12.83;63.59
55990;BME280;41875;55.806;38.082;2022-10-04T13:08:58;98673.94;;;13.59;61.96
55990;BME280;41875;55.806;38.082;2022-10-04T13:11:40;98665.63;;;12.92;63.04
55990;BME280;41875;55.806;38.082;2022-10-04T13:14:28;98667.19;;;13.21;61.79
55990;BME280;41875;55.806;38.082;2022-10-04T13:17:02;98664.28;;;12.74;62.20
55990;BME280;41875;55.806;38.082;2022-10-04T13:20:11;98674.94;;;13.16;60.44
55990;BME280;41875;55.806;38.082;2022-10-04T13:22:48;98661.38;;;12.69;61.15
55990;BME280;41875;55.806;38.082;2022-10-04T13:25:50;98665.03;;;13.38;57.60
55990;BME280;41875;55.806;38.082;2022-10-04T13:28:33;98673.53;;;12.57;59.25
55990;BME280;41875;55.806;38.082;2022-10-04T13:31:08;98668.34;;;12.20;60.76
55990;BME280;41875;55.806;38.082;2022-10-04T13:33:45;98668.56;;;12.47;58.89
55990;BME280;41875;55.806;38.082;2022-10-04T13:36:22;98669.81;;;11.86;60.90
55990;BME280;41875;55.806;38.082;2022-10-04T13:39:18;98673.50;;;12.28;60.17
55990;BME280;41875;55.806;38.082;2022-10-04T13:42:03;98679.44;;;12.30;59.30
55990;BME280;41875;55.806;38.082;2022-10-04T13:44:56;98676.41;;;12.12;59.50
55990;BME280;41875;55.806;38.082;2022-10-04T13:47:50;98685.03;;;12.35;59.63
55990;BME280;41875;55.806;38.082;2022-10-04T13:50:31;98673.22;;;11.80;60.41
55990;BME280;41875;55.806;38.082;2022-10-04T13:53:19;98680.97;;;12.18;59.54
55990;BME280;41875;55.806;38.082;2022-10-04T13:56:34;98680.84;;;12.04;60.11
55990;BME280;41875;55.806;38.082;2022-10-04T13:59:15;98683.41;;;11.98;60.46
55990;BME280;41875;55.806;38.082;2022-10-04T14:08:28;98688.19;;;11.87;61.91
55990;BME280;41875;55.806;38.082;2022-10-04T14:11:26;98680.78;;;12.41;60.91
55990;BME280;41875;55.806;38.082;2022-10-04T14:14:38;98682.03;;;12.45;60.29
55990;BME280;41875;55.806;38.082;2022-10-04T14:17:21;98677.91;;;11.63;62.55
55990;BME280;41875;55.806;38.082;2022-10-04T14:23:18;98679.53;;;11.79;63.02
55990;BME280;41875;55.806;38.082;2022-10-04T14:26:12;98676.56;;;12.03;62.25
55990;BME280;41875;55.806;38.082;2022-10-04T14:29:11;98684.94;;;12.07;62.39
55990;BME280;41875;55.806;38.082;2022-10-04T14:32:07;98686.09;;;11.46;64.51
55990;BME280;41875;55.806;38.082;2022-10-04T14:34:54;98695.78;;;11.90;63.44
55990;BME280;41875;55.806;38.082;2022-10-04T14:41:02;98701.84;;;11.84;63.22
55990;BME280;41875;55.806;38.082;2022-10-04T14:44:06;98705.03;;;11.13;65.63
55990;BME280;41875;55.806;38.082;2022-10-04T14:46:50;98696.72;;;11.83;64.54
55990;BME280;41875;55.806;38.082;2022-10-04T14:49:35;98695.34;;;11.87;63.63
55990;BME280;41875;55.806;38.082;2022-10-04T14:52:19;98705.47;;;11.98;63.40
55990;BME280;41875;55.806;38.082;2022-10-04T14:54:52;98706.31;;;11.99;63.17
55990;BME280;41875;55.806;38.082;2022-10-04T14:57:46;98704.94;;;11.88;63.84
55990;BME280;41875;55.806;38.082;2022-10-04T15:00:19;98705.22;;;11.93;63.01
55990;BME280;41875;55.806;38.082;2022-10-04T15:03:16;98713.81;;;12.32;61.97
55990;BME280;41875;55.806;38.082;2022-10-04T15:06:06;98716.78;;;12.22;61.71
55990;BME280;41875;55.806;38.082;2022-10-04T15:11:43;98720.50;;;12.28;62.41
55990;BME280;41875;55.806;38.082;2022-10-04T15:17:55;98721.88;;;12.02;63.72
55990;BME280;41875;55.806;38.082;2022-10-04T15:20:30;98721.22;;;11.85;64.37
55990;BME280;41875;55.806;38.082;2022-10-04T15:23:09;98728.91;;;11.95;64.33
55990;BME280;41875;55.806;38.082;2022-10-04T15:25:43;98723.31;;;11.89;64.11
55990;BME280;41875;55.806;38.082;2022-10-04T15:28:30;98725.38;;;11.72;64.86